Myrtle Beach, SC (29577)

3:37 AM EDT on May 29, 2017 (GMT -0400)
Woodhaven Pancake House | | Change Station

Elev 21 ft 33.67 °N, 78.92 °W | Updated 3 seconds ago

Mostly Cloudy
Mostly Cloudy
75.0 °F
Feels Like 73 °F
N
0.0
Wind Variable Wind from SW
Gusts 0.0 mph

Today
High -- | Low -- °F
--% Chance of Precip.
Yesterday
High -- | Low -- °F
Precip. -- in
Pressure 29.88 in
Visibility 10.0 miles
Clouds Mostly Cloudy 4600 ft
Mostly Cloudy 5500 ft
Heat Index 73 °F
Dew Point 74 °F
Humidity 95%
Rainfall 0.00 in
Snow Depth Not available.
6:07 AM 8:19 PM
Waxing Crescent, 17% visible
METAR KMYR 290556Z AUTO 23004KT 10SM BKN046 BKN055 24/22 A2988 RMK AO2 SLP118 60025 T02390222 10289 20217 55011
Pressure 29.88 in
Visibility 10.0 miles
Clouds Mostly Cloudy 4600 ft
Mostly Cloudy 5500 ft
Heat Index 73 °F
Dew Point 74 °F
Humidity 95%
Rainfall 0.00 in
Snow Depth Not available.
6:07 AM 8:19 PM
Waxing Crescent, 17% visible
METAR KMYR 290556Z AUTO 23004KT 10SM BKN046 BKN055 24/22 A2988 RMK AO2 SLP118 60025 T02390222 10289 20217 55011

Get Severe Weather Alerts

Thanks for signing up!

Be on the lookout for a verification email in your inbox.

You'll start receiving the daily forecast at 6 AM.

×

10-Day Weather Forecast

Almanac

Astronomy

May. 29, 2017 Rise Set
Actual Time
Civil Twilight
Nautical Twilight
Astronomical Twilight
Moon
Length of Visible Light
Length of Day
Tomorrow will be .
, % of the Moon is Illuminated

Today's Extremes

State Highs State Lows

Community

WunderPhotos

Category 6

Welcome to Category 6. This is the collective home for Weather Underground's featured writeups by Dr. Jeff Masters (right), Bob Henson (left), Chris Burt, and other regular contributors.

Nearby

Air Quality

  Air Quality AQ Index Pollutant
Not available.

Snow Depth

Station Depth Elevation

Earthquake Activity

City Distance Mag. Time & Date
Minimum magnitude displayed is 2.5.

Coastal Water Temperatures

Place Temperature

Stations

Nearby Weather Stations

Station Location Temp. Windchill Dew Point Humidity Wind Precip. Elev Updated Type
                   

Watches & Warnings

There are currently no watches in effect.